Time;durP1;ratioP1;P1;durP2;ratioP2;P2;SDS_P1;SDS_P2;PMS_P1;PMS_P2;Temp;Humidity;BMP_temperature;BMP_pressure;BME280_temperature;BME280_humidity;BME280_pressure;Samples;Min_cycle;Max_cycle;Signal;HPM_P1;HPM_P2
2023/12/30 00:01:22;;;;;;;80.53;36.03;;;;;;;-142.91;100.00;56616.03;5030353;28;20643;-71
2023/12/30 00:03:50;;;;;;;80.78;40.25;;;;;;;-142.91;100.00;56616.03;5030594;28;20299;-71
2023/12/30 00:06:18;;;;;;;75.70;36.40;;;;;;;-142.91;100.00;56616.03;5028996;28;20294;-72
2023/12/30 00:08:45;;;;;;;73.20;37.30;;;;;;;-142.91;100.00;56616.03;5029707;28;20228;-72
2023/12/30 00:11:11;;;;;;;68.60;35.92;;;;;;;-142.91;100.00;56616.03;5031816;28;20294;-73
2023/12/30 00:13:38;;;;;;;75.55;38.33;;;;;;;-142.91;100.00;56616.03;5034244;28;20235;-72
2023/12/30 00:16:05;;;;;;;75.90;36.42;;;;;;;-142.91;100.00;56616.03;5031898;28;20234;-71
2023/12/30 00:18:32;;;;;;;79.70;35.22;;;;;;;-142.91;100.00;56616.03;5031264;28;20245;-71
2023/12/30 00:21:00;;;;;;;75.57;34.38;;;;;;;-142.91;100.00;56616.03;5031113;28;20681;-71
2023/12/30 00:23:27;;;;;;;80.38;36.22;;;;;;;-142.91;100.00;56616.03;5028412;28;20262;-71
2023/12/30 00:25:54;;;;;;;66.43;33.97;;;;;;;-142.91;100.00;56616.03;5030708;28;20658;-73
2023/12/30 00:28:21;;;;;;;74.93;36.08;;;;;;;-142.91;100.00;56616.03;5033095;28;20214;-71
2023/12/30 00:30:47;;;;;;;67.97;34.88;;;;;;;-142.91;100.00;56616.03;5027824;28;20249;-73
2023/12/30 00:33:14;;;;;;;75.78;36.78;;;;;;;-142.91;100.00;56616.03;5028992;28;20308;-72
2023/12/30 00:35:41;;;;;;;80.97;36.85;;;;;;;-142.91;100.00;56616.03;5031263;28;20696;-71
2023/12/30 00:38:09;;;;;;;76.15;37.35;;;;;;;-142.91;100.00;56616.03;5032210;28;20231;-71
2023/12/30 00:40:35;;;;;;;73.20;36.65;;;;;;;-142.91;100.00;56616.03;5026135;28;20286;-72
2023/12/30 00:43:02;;;;;;;69.55;35.60;;;;;;;-142.91;100.00;56616.03;5030621;28;20290;-71
2023/12/30 00:45:29;;;;;;;70.82;35.75;;;;;;;-142.91;100.00;56616.03;5029643;28;20307;-71
2023/12/30 00:47:56;;;;;;;74.70;37.85;;;;;;;-142.91;100.00;56616.03;5031454;28;20247;-72
2023/12/30 00:50:22;;;;;;;60.95;32.92;;;;;;;-142.91;100.00;56616.03;5029567;28;20215;-71
2023/12/30 00:52:49;;;;;;;59.08;31.30;;;;;;;-142.91;100.00;56616.03;5025926;28;20299;-72
2023/12/30 00:55:17;;;;;;;53.42;29.63;;;;;;;-142.91;100.00;56616.03;5028996;28;20286;-71
2023/12/30 00:57:43;;;;;;;57.58;30.63;;;;;;;-142.91;100.00;56616.03;5030631;28;20290;-72
2023/12/30 01:00:11;;;;;;;54.33;30.70;;;;;;;-142.91;100.00;56616.03;5029746;28;20293;-71
2023/12/30 01:02:38;;;;;;;63.95;29.85;;;;;;;-142.91;100.00;56616.03;5027395;28;20681;-71
2023/12/30 01:05:05;;;;;;;65.68;30.50;;;;;;;;;;5029622;28;20288;-71
2023/12/30 01:07:33;;;;;;;64.25;29.35;;;;;;;-142.91;100.00;56616.03;5030400;28;20292;-71
2023/12/30 01:09:59;;;;;;;59.85;29.30;;;;;;;-142.91;100.00;56616.03;5027659;28;20673;-71
2023/12/30 01:12:27;;;;;;;61.85;30.70;;;;;;;-142.91;100.00;56616.03;5032722;28;20238;-71
2023/12/30 01:14:54;;;;;;;54.60;28.65;;;;;;;-142.91;100.00;56616.03;5032845;28;20286;-71
2023/12/30 01:17:21;;;;;;;54.70;28.77;;;;;;;-142.91;100.00;56616.03;5032458;28;20200;-71
2023/12/30 01:19:47;;;;;;;66.07;30.33;;;;;;;-142.91;100.00;56616.03;5026563;28;20207;-71
2023/12/30 01:22:14;;;;;;;68.20;28.67;;;;;;;-142.91;100.00;56616.03;5032189;28;20273;-71
2023/12/30 01:24:41;;;;;;;64.03;30.63;;;;;;;-142.91;100.00;56616.03;5032921;28;20246;-70
2023/12/30 01:27:08;;;;;;;57.03;28.88;;;;;;;-142.91;100.00;56616.03;5033975;28;20278;-71
2023/12/30 01:29:36;;;;;;;61.15;30.67;;;;;;;-142.91;100.00;56616.03;5035629;28;20237;-71
2023/12/30 01:32:03;;;;;;;51.35;28.38;;;;;;;-142.91;100.00;56616.03;5031178;28;20340;-73
2023/12/30 01:34:29;;;;;;;58.20;28.52;;;;;;;-142.91;100.00;56616.03;5028981;28;20200;-70
2023/12/30 01:36:56;;;;;;;55.55;29.17;;;;;;;-142.91;100.00;56616.03;5022615;28;20323;-73
2023/12/30 01:39:23;;;;;;;55.05;29.60;;;;;;;-142.91;100.00;56616.03;5020259;28;20314;-73
2023/12/30 01:41:51;;;;;;;63.15;30.85;;;;;;;-142.91;100.00;56616.03;5020392;28;20231;-70
2023/12/30 01:44:18;;;;;;;61.88;31.30;;;;;;;23.25;100.00;56616.03;5021304;28;20208;-70
2023/12/30 01:46:46;;;;;;;56.97;30.20;;;;;;;-142.91;100.00;56616.03;5015715;28;20282;-70
2023/12/30 01:49:13;;;;;;;73.07;30.13;;;;;;;-142.91;100.00;56616.03;5020558;28;20251;-71
2023/12/30 01:51:40;;;;;;;57.90;29.48;;;;;;;-142.91;100.00;56616.03;5017175;28;20227;-71
2023/12/30 01:54:07;;;;;;;58.08;29.15;;;;;;;-142.91;100.00;56616.03;5026980;28;20286;-71
2023/12/30 01:56:35;;;;;;;65.05;32.40;;;;;;;-142.91;100.00;56616.03;5016971;28;20295;-71
2023/12/30 01:59:02;;;;;;;53.63;28.10;;;;;;;-142.91;100.00;56616.03;5013909;28;20235;-72
2023/12/30 02:01:29;;;;;;;63.92;30.60;;;;;;;-142.91;100.00;56616.03;5019593;28;20291;-72
2023/12/30 02:03:57;;;;;;;51.47;29.33;;;;;;;-142.91;100.00;56616.03;5018344;28;20311;-71
2023/12/30 02:06:24;;;;;;;53.40;28.33;;;;;;;-142.91;100.00;56616.03;5015039;28;20933;-71
2023/12/30 02:08:51;;;;;;;56.80;28.15;;;;;;;-142.91;100.00;56616.03;5025165;28;21038;-71
2023/12/30 02:11:17;;;;;;;50.38;25.95;;;;;;;-142.91;100.00;56616.03;5021458;28;20755;-73
2023/12/30 02:13:45;;;;;;;60.20;28.83;;;;;;;-142.91;100.00;56616.03;5021794;28;20200;-71
2023/12/30 02:16:11;;;;;;;52.90;27.08;;;;;;;-142.91;100.00;56616.03;5022071;28;20654;-74
2023/12/30 02:18:38;;;;;;;51.90;25.65;;;;;;;-142.91;100.00;56616.03;5022155;28;20242;-72
2023/12/30 02:21:07;;;;;;;51.08;27.45;;;;;;;-142.91;100.00;56616.03;5019720;28;20275;-72
2023/12/30 02:23:35;;;;;;;55.10;27.13;;;;;;;-142.91;100.00;56616.03;5014972;28;20704;-71
2023/12/30 02:26:02;;;;;;;51.08;25.52;;;;;;;;;;5012028;28;20262;-73
2023/12/30 02:28:29;;;;;;;45.72;26.60;;;;;;;-142.91;100.00;56616.03;5021675;28;20663;-71
2023/12/30 02:30:55;;;;;;;43.97;24.42;;;;;;;-142.91;100.00;56616.03;5020734;28;20537;-71
2023/12/30 02:33:22;;;;;;;51.90;27.25;;;;;;;-142.91;100.00;56616.03;5021167;28;20250;-72
2023/12/30 02:35:49;;;;;;;51.67;27.70;;;;;;;-142.91;100.00;56616.03;5026676;28;20275;-71
2023/12/30 02:38:15;;;;;;;47.55;27.23;;;;;;;-142.91;100.00;56616.03;5024496;28;20258;-71
2023/12/30 02:40:44;;;;;;;58.03;29.23;;;;;;;-142.91;100.00;56616.03;5019509;28;20326;-72
2023/12/30 02:43:11;;;;;;;62.80;30.13;;;;;;;-142.91;100.00;56616.03;5013202;28;20288;-72
2023/12/30 02:45:38;;;;;;;49.53;28.17;;;;;;;-142.91;100.00;56616.03;5018130;28;20295;-71
2023/12/30 02:48:05;;;;;;;58.33;27.58;;;;;;;-142.91;100.00;56616.03;5014287;28;20232;-71
2023/12/30 02:50:32;;;;;;;48.25;27.45;;;;;;;-142.91;100.00;56616.03;5023405;28;20672;-72
2023/12/30 02:52:59;;;;;;;58.65;27.60;;;;;;;-142.91;100.00;56616.03;5020704;28;20305;-72
2023/12/30 02:55:25;;;;;;;52.90;26.23;;;;;;;-142.91;100.00;56616.03;5014865;28;20640;-70
2023/12/30 02:57:53;;;;;;;53.83;28.17;;;;;;;-142.91;100.00;56616.03;5020710;28;20287;-71
2023/12/30 03:00:20;;;;;;;49.17;26.73;;;;;;;-142.91;100.00;56616.03;5021284;28;20698;-71
2023/12/30 03:02:47;;;;;;;47.88;28.42;;;;;;;-142.91;100.00;56616.03;5016822;28;20224;-71
2023/12/30 03:05:14;;;;;;;67.80;27.10;;;;;;;-142.91;100.00;56616.03;5016375;28;20287;-71
2023/12/30 03:07:41;;;;;;;47.75;26.45;;;;;;;-142.91;100.00;56616.03;5011109;28;20287;-71
2023/12/30 03:10:08;;;;;;;51.58;28.25;;;;;;;23.25;100.00;56616.03;5024270;28;20313;-71
2023/12/30 03:12:35;;;;;;;54.08;26.30;;;;;;;-142.91;100.00;56616.03;5022606;28;20626;-71
2023/12/30 03:15:03;;;;;;;47.50;25.45;;;;;;;-142.91;100.00;56616.03;5017689;28;20706;-71
2023/12/30 03:17:30;;;;;;;45.47;24.88;;;;;;;-142.91;100.00;56616.03;5019995;28;20239;-70
2023/12/30 03:19:56;;;;;;;50.95;26.00;;;;;;;-142.91;100.00;56616.03;5017524;28;20235;-73
2023/12/30 03:22:23;;;;;;;51.45;27.83;;;;;;;-142.91;100.00;56616.03;5023435;28;20262;-70
2023/12/30 03:24:50;;;;;;;48.33;26.05;;;;;;;-142.91;100.00;56616.03;5015945;28;20236;-71
2023/12/30 03:27:16;;;;;;;46.10;26.23;;;;;;;-142.91;100.00;56616.03;5019499;28;20207;-70
2023/12/30 03:29:43;;;;;;;54.00;25.23;;;;;;;-142.91;100.00;56616.03;5025274;28;20294;-71
2023/12/30 03:32:11;;;;;;;49.03;26.15;;;;;;;-142.91;100.00;56616.03;5015458;28;20604;-71
2023/12/30 03:34:38;;;;;;;51.28;26.25;;;;;;;-142.91;100.00;56616.03;5014685;28;20231;-72
2023/12/30 03:37:04;;;;;;;51.05;23.83;;;;;;;;;;5024959;28;20240;-71
2023/12/30 03:39:31;;;;;;;44.20;24.35;;;;;;;-142.91;100.00;56616.03;5016628;28;20245;-71
2023/12/30 03:41:58;;;;;;;54.03;28.13;;;;;;;-142.91;100.00;56616.03;5010480;28;20212;-71
2023/12/30 03:44:24;;;;;;;52.35;27.92;;;;;;;-142.91;100.00;56616.03;5019469;28;20234;-72
2023/12/30 03:46:51;;;;;;;51.80;26.85;;;;;;;-142.91;100.00;56616.03;5014468;28;20283;-71
2023/12/30 03:49:19;;;;;;;51.97;26.50;;;;;;;-142.91;100.00;56616.03;5016725;28;20289;-73
2023/12/30 03:51:45;;;;;;;54.47;27.48;;;;;;;-142.91;100.00;56616.03;5010964;28;20319;-71
2023/12/30 03:54:12;;;;;;;54.88;24.92;;;;;;;-142.91;100.00;56616.03;5017985;28;20235;-71
2023/12/30 03:56:39;;;;;;;56.42;27.15;;;;;;;-142.91;100.00;56616.03;5019057;28;20236;-71
2023/12/30 03:59:06;;;;;;;45.55;23.95;;;;;;;-142.91;100.00;56616.03;5018647;28;20200;-71
2023/12/30 04:01:32;;;;;;;46.83;26.23;;;;;;;-142.91;100.00;56616.03;5018386;28;20220;-71
2023/12/30 04:03:59;;;;;;;51.80;25.85;;;;;;;-142.91;100.00;56616.03;5019338;28;20236;-72
2023/12/30 04:06:27;;;;;;;48.95;25.40;;;;;;;-142.91;100.00;56616.03;5025774;28;20282;-78
2023/12/30 04:08:54;;;;;;;42.33;26.38;;;;;;;-142.91;100.00;56616.03;5031426;28;20206;-70
2023/12/30 04:11:20;;;;;;;55.10;26.13;;;;;;;-142.91;100.00;56616.03;5024711;28;20251;-71
2023/12/30 04:13:47;;;;;;;54.90;25.92;;;;;;;-142.91;100.00;56616.03;5020095;28;20346;-71
2023/12/30 04:16:14;;;;;;;43.03;24.25;;;;;;;-142.91;100.00;56616.03;5027433;28;20254;-70
2023/12/30 04:18:41;;;;;;;45.55;24.80;;;;;;;-142.91;100.00;56616.03;5019611;28;20228;-72
2023/12/30 04:21:07;;;;;;;55.28;26.67;;;;;;;-142.91;100.00;56616.03;5017198;28;20283;-71
2023/12/30 04:23:36;;;;;;;43.47;24.85;;;;;;;;;;5019836;28;20302;-73
2023/12/30 04:26:03;;;;;;;45.78;25.85;;;;;;;-142.91;100.00;56616.03;5016540;28;20300;-71
2023/12/30 04:28:31;;;;;;;52.00;26.55;;;;;;;-142.91;100.00;56616.03;5012777;28;20231;-72
2023/12/30 04:30:57;;;;;;;51.05;27.75;;;;;;;-142.91;100.00;56616.03;5017364;28;20240;-72
2023/12/30 04:33:23;;;;;;;42.78;25.23;;;;;;;-142.91;100.00;56616.03;5016647;28;20722;-72
2023/12/30 04:35:50;;;;;;;45.58;23.90;;;;;;;-142.91;100.00;56616.03;5015327;28;20238;-71
2023/12/30 04:38:18;;;;;;;40.08;23.25;;;;;;;-142.91;100.00;56616.03;5037214;28;20301;-72
2023/12/30 04:40:46;;;;;;;45.90;23.38;;;;;;;-142.91;100.00;56616.03;5040895;28;20208;-72
2023/12/30 04:43:12;;;;;;;46.75;25.00;;;;;;;-142.91;100.00;56616.03;5041806;28;20206;-73
2023/12/30 04:45:39;;;;;;;43.90;25.48;;;;;;;-142.91;100.00;56616.03;5041360;28;20298;-71
2023/12/30 04:48:06;;;;;;;48.80;23.77;;;;;;;-142.91;100.00;56616.03;5038545;28;20287;-70
2023/12/30 04:50:33;;;;;;;47.85;24.88;;;;;;;-142.91;100.00;56616.03;5037057;28;20318;-71
2023/12/30 04:53:00;;;;;;;37.13;21.48;;;;;;;-142.91;100.00;56616.03;5042899;28;20294;-72
2023/12/30 04:55:26;;;;;;;39.47;22.38;;;;;;;-142.91;100.00;56616.03;5049034;28;20723;-72
2023/12/30 04:57:54;;;;;;;33.17;20.40;;;;;;;;;;5049390;28;20242;-73
2023/12/30 05:00:21;;;;;;;35.70;22.42;;;;;;;-142.91;100.00;56616.03;5046433;28;20231;-72
2023/12/30 05:02:48;;;;;;;40.88;20.60;;;;;;;-142.91;100.00;56616.03;5052720;28;20239;-72
2023/12/30 05:05:14;;;;;;;43.85;22.90;;;;;;;-142.91;100.00;56616.03;5046821;28;20234;-72
2023/12/30 05:07:41;;;;;;;35.88;21.27;;;;;;;-142.91;100.00;56616.03;5044956;28;20228;-72
2023/12/30 05:10:09;;;;;;;42.55;21.58;;;;;;;-142.91;100.00;56616.03;5050831;28;20249;-75
2023/12/30 05:12:36;;;;;;;48.42;22.80;;;;;;;-142.91;100.00;56616.03;5054860;28;20282;-73
2023/12/30 05:15:05;;;;;;;38.45;21.33;;;;;;;-142.91;100.00;56616.03;5047132;28;20614;-72
2023/12/30 05:17:32;;;;;;;35.90;21.05;;;;;;;-142.91;100.00;56616.03;5044387;28;20666;-73
2023/12/30 05:19:59;;;;;;;35.90;22.63;;;;;;;-142.91;100.00;56616.03;5042258;28;20235;-72
2023/12/30 05:22:25;;;;;;;35.85;20.52;;;;;;;-142.91;100.00;56616.03;5042470;28;20282;-72
2023/12/30 05:24:52;;;;;;;35.28;19.08;;;;;;;-142.91;100.00;56616.03;5037481;28;20672;-72
2023/12/30 05:27:19;;;;;;;37.63;21.90;;;;;;;-142.91;100.00;56616.03;5043523;28;20234;-72
2023/12/30 05:29:45;;;;;;;47.70;23.92;;;;;;;-142.91;100.00;56616.03;5049317;28;20269;-71
2023/12/30 05:32:13;;;;;;;42.15;23.98;;;;;;;-142.91;100.00;56616.03;5045660;28;20335;-72
2023/12/30 05:34:40;;;;;;;39.90;24.38;;;;;;;-142.91;100.00;56616.03;5044109;28;20250;-72
2023/12/30 05:37:06;;;;;;;56.92;27.48;;;;;;;-142.91;100.00;56616.03;5030972;28;20319;-71
2023/12/30 05:39:33;;;;;;;46.20;26.35;;;;;;;-142.91;100.00;56616.03;5021949;28;20705;-70
2023/12/30 05:42:00;;;;;;;43.60;25.73;;;;;;;-142.91;100.00;56616.03;5021083;28;20295;-72
2023/12/30 05:44:26;;;;;;;49.65;27.50;;;;;;;-142.91;100.00;56616.03;5020011;28;20385;-72
2023/12/30 05:46:53;;;;;;;52.97;27.05;;;;;;;-142.91;100.00;56616.03;5018850;28;20232;-72
2023/12/30 05:49:21;;;;;;;55.08;27.85;;;;;;;-142.91;100.00;56616.03;5012137;28;20743;-72
2023/12/30 05:51:50;;;;;;;58.88;29.80;;;;;;;-142.91;100.00;56616.03;5017188;28;20219;-72
2023/12/30 05:54:16;;;;;;;52.60;28.52;;;;;;;-142.91;100.00;56616.03;5022180;28;20693;-72
2023/12/30 05:56:43;;;;;;;54.05;31.05;;;;;;;-142.91;100.00;56616.03;5015741;28;20287;-72
2023/12/30 05:59:09;;;;;;;60.28;29.58;;;;;;;-142.91;100.00;56616.03;5024106;28;20231;-72
2023/12/30 06:01:43;;;;;;;60.25;29.63;;;;;;;-142.91;100.00;56616.03;5021910;28;20287;-72
2023/12/30 06:04:10;;;;;;;48.70;27.48;;;;;;;-142.91;100.00;56616.03;5015219;28;20295;-72
2023/12/30 06:06:38;;;;;;;53.05;28.77;;;;;;;-142.91;100.00;56616.03;5023739;28;20200;-72
2023/12/30 06:09:05;;;;;;;57.53;27.52;;;;;;;-142.91;100.00;56616.03;5023657;28;20318;-72
2023/12/30 06:11:32;;;;;;;46.30;26.85;;;;;;;-142.91;100.00;56616.03;5022910;28;20255;-72
2023/12/30 06:13:58;;;;;;;42.90;25.65;;;;;;;-142.91;100.00;56616.03;5011739;28;20601;-72
2023/12/30 06:16:25;;;;;;;38.58;21.98;;;;;;;-142.91;100.00;56616.03;5012555;28;20307;-73
2023/12/30 06:18:52;;;;;;;47.15;24.98;;;;;;;-142.91;100.00;56616.03;5011020;28;20294;-71
2023/12/30 06:21:18;;;;;;;43.83;22.65;;;;;;;-142.91;100.00;56616.03;5013991;28;20287;-72
2023/12/30 06:23:46;;;;;;;47.17;24.77;;;;;;;-142.91;100.00;56616.03;5010316;28;20690;-72
2023/12/30 06:26:13;;;;;;;51.90;27.88;;;;;;;;;;5011717;28;20357;-72
2023/12/30 06:28:39;;;;;;;46.70;26.52;;;;;;;;;;5010619;28;20336;-73
2023/12/30 06:31:06;;;;;;;48.58;25.38;;;;;;;-142.91;100.00;56616.03;5010428;28;20259;-73
2023/12/30 06:33:33;;;;;;;50.55;28.33;;;;;;;-142.91;100.00;56616.03;5011463;28;21211;-72
2023/12/30 06:35:59;;;;;;;54.20;28.45;;;;;;;-142.91;100.00;56616.03;5007625;28;20805;-71
2023/12/30 06:38:26;;;;;;;49.30;27.85;;;;;;;-142.91;100.00;56616.03;5015404;28;20667;-72
2023/12/30 06:40:54;;;;;;;59.42;27.25;;;;;;;-142.91;100.00;56616.03;5011083;28;20284;-74
2023/12/30 06:43:20;;;;;;;48.35;27.55;;;;;;;-142.91;100.00;56616.03;5014096;28;20689;-73
2023/12/30 06:45:47;;;;;;;48.20;25.30;;;;;;;-142.91;100.00;56616.03;5022687;28;20278;-73
2023/12/30 06:48:16;;;;;;;49.38;28.23;;;;;;;-142.91;100.00;56616.03;5016038;28;21056;-74
2023/12/30 06:50:43;;;;;;;57.92;27.35;;;;;;;-142.91;100.00;56616.03;5014615;28;20566;-73
2023/12/30 06:53:09;;;;;;;51.85;27.52;;;;;;;-142.91;100.00;56616.03;5025556;28;20199;-72
2023/12/30 06:55:36;;;;;;;55.05;27.77;;;;;;;-142.91;100.00;56616.03;5019740;28;20287;-72
2023/12/30 06:58:04;;;;;;;54.22;27.15;;;;;;;;;;5020733;28;20287;-72
2023/12/30 07:00:31;;;;;;;48.83;27.25;;;;;;;-142.91;100.00;56616.03;5015267;28;20207;-71
2023/12/30 07:02:58;;;;;;;52.08;27.13;;;;;;;-142.91;100.00;56616.03;5025958;28;20226;-72
2023/12/30 07:05:24;;;;;;;47.83;26.25;;;;;;;-142.91;100.00;56616.03;5022359;28;20254;-71
2023/12/30 07:07:51;;;;;;;52.17;26.60;;;;;;;-142.91;100.00;56616.03;5022577;28;20324;-72
2023/12/30 07:10:18;;;;;;;48.92;25.60;;;;;;;-142.91;100.00;56616.03;5020979;28;20291;-73
2023/12/30 07:12:44;;;;;;;46.80;25.17;;;;;;;-142.91;100.00;56616.03;5014875;28;20219;-70
2023/12/30 07:15:12;;;;;;;59.90;24.05;;;;;;;-142.91;100.00;56616.03;5014728;28;20303;-72
2023/12/30 07:17:39;;;;;;;47.65;23.08;;;;;;;-142.91;100.00;56616.03;5019541;28;20265;-72
2023/12/30 07:20:07;;;;;;;38.17;23.80;;;;;;;-142.91;100.00;56616.03;5022439;28;20594;-72
2023/12/30 07:22:34;;;;;;;51.85;24.13;;;;;;;-142.91;100.00;56616.03;5020825;28;20262;-71
2023/12/30 07:25:00;;;;;;;39.63;21.48;;;;;;;-142.91;100.00;56616.03;5022841;28;20239;-72
2023/12/30 07:27:29;;;;;;;39.30;22.73;;;;;;;-142.91;100.00;56616.03;5026728;28;20235;-72
2023/12/30 07:29:57;;;;;;;33.38;19.75;;;;;;;-142.91;100.00;56616.03;5021178;28;20204;-73
2023/12/30 07:32:25;;;;;;;34.35;20.85;;;;;;;23.25;100.00;56616.03;5026086;28;20305;-72
2023/12/30 07:34:52;;;;;;;40.83;20.02;;;;;;;23.25;100.00;56616.03;5028057;28;20307;-73
2023/12/30 07:37:19;;;;;;;37.88;22.55;;;;;;;-142.91;100.00;56616.03;5017717;28;20319;-72
2023/12/30 07:39:46;;;;;;;35.97;22.30;;;;;;;-142.91;100.00;56616.03;5005228;28;20306;-72
2023/12/30 07:42:15;;;;;;;35.63;24.25;;;;;;;-142.91;100.00;56616.03;5006789;28;20208;-72
2023/12/30 07:44:41;;;;;;;29.98;21.75;;;;;;;;;;5006900;28;20204;-71
2023/12/30 07:47:07;;;;;;;39.00;23.60;;;;;;;;;;5003063;28;20403;-72
2023/12/30 07:49:38;;;;;;;32.28;22.25;;;;;;;23.25;100.00;56616.03;5013069;28;20216;-72
2023/12/30 07:52:05;;;;;;;39.85;23.92;;;;;;;-142.91;100.00;56616.03;5007121;28;20228;-71
2023/12/30 07:54:32;;;;;;;32.92;20.77;;;;;;;-142.91;100.00;56616.03;5005442;28;20205;-71
2023/12/30 07:56:58;;;;;;;32.45;19.73;;;;;;;-142.91;100.00;56616.03;5013457;28;20514;-71
2023/12/30 07:59:25;;;;;;;28.52;18.85;;;;;;;-142.91;100.00;56616.03;5004557;28;20342;-72
2023/12/30 08:01:56;;;;;;;29.50;18.80;;;;;;;-142.91;100.00;56616.03;5010577;28;20196;-73
2023/12/30 08:04:22;;;;;;;29.77;19.27;;;;;;;;;;5016135;28;20441;-73
2023/12/30 08:06:50;;;;;;;33.53;18.98;;;;;;;23.25;100.00;56616.03;5012639;28;20313;-72
2023/12/30 08:09:17;;;;;;;31.02;18.73;;;;;;;23.25;100.00;56616.03;5018024;28;20207;-72
2023/12/30 08:11:44;;;;;;;31.75;20.63;;;;;;;-142.91;100.00;56616.03;5016563;28;20796;-72
2023/12/30 08:14:10;;;;;;;37.58;22.92;;;;;;;-142.91;100.00;56616.03;5017819;28;20238;-71
2023/12/30 08:16:37;;;;;;;35.55;24.38;;;;;;;23.25;100.00;56616.03;5016360;28;20208;-72
2023/12/30 08:19:04;;;;;;;37.55;26.15;;;;;;;-142.91;100.00;56616.03;5014685;28;20679;-72
2023/12/30 08:21:31;;;;;;;55.03;30.67;;;;;;;-142.91;100.00;56616.03;5012223;28;20299;-71
2023/12/30 08:24:00;;;;;;;56.45;32.33;;;;;;;23.25;100.00;56616.03;5016521;28;20294;-70
2023/12/30 08:26:27;;;;;;;46.38;30.55;;;;;;;23.25;100.00;56616.03;5014195;28;20200;-71
2023/12/30 08:28:54;;;;;;;54.72;32.60;;;;;;;;;;5017565;28;20264;-71
2023/12/30 08:31:21;;;;;;;46.50;30.05;;;;;;;-142.91;100.00;56616.03;5014820;28;20231;-70
2023/12/30 08:33:48;;;;;;;42.35;28.80;;;;;;;23.25;100.00;56616.03;5017429;28;20712;-71
2023/12/30 08:36:15;;;;;;;44.88;28.75;;;;;;;-142.91;100.00;56616.03;5022078;28;20267;-72
2023/12/30 08:38:42;;;;;;;46.00;29.63;;;;;;;-142.91;100.00;56616.03;5019451;28;20204;-71
2023/12/30 08:41:14;;;;;;;46.10;28.90;;;;;;;-142.91;100.00;56616.03;5017115;28;20208;-72
2023/12/30 08:43:41;;;;;;;46.92;28.13;;;;;;;-142.91;100.00;56616.03;5015916;28;20677;-72
2023/12/30 08:46:08;;;;;;;44.35;25.58;;;;;;;-142.91;100.00;56616.03;5020134;28;20208;-72
2023/12/30 08:48:36;;;;;;;43.45;25.88;;;;;;;-142.91;100.00;56616.03;5025713;28;20204;-71
2023/12/30 08:51:03;;;;;;;41.30;24.88;;;;;;;-142.91;100.00;56616.03;5020986;28;20640;-72
2023/12/30 08:53:30;;;;;;;43.83;25.00;;;;;;;-142.91;100.00;56616.03;5021944;28;20258;-71
2023/12/30 08:55:57;;;;;;;38.13;23.10;;;;;;;;;;5021217;28;20660;-71
2023/12/30 08:58:25;;;;;;;34.58;22.67;;;;;;;-142.91;100.00;56616.03;5016153;28;20211;-71
2023/12/30 09:00:52;;;;;;;34.25;22.33;;;;;;;;;;5015554;28;20282;-72
2023/12/30 09:03:19;;;;;;;38.88;22.77;;;;;;;-142.91;100.00;56616.03;5017898;28;20204;-72
2023/12/30 09:05:45;;;;;;;35.35;22.60;;;;;;;-142.91;100.00;56616.03;5019630;28;20231;-72
2023/12/30 09:08:12;;;;;;;41.22;24.58;;;;;;;-142.91;100.00;56616.03;5014465;28;20232;-72
2023/12/30 09:10:39;;;;;;;36.40;25.90;;;;;;;-142.91;100.00;56616.03;5018765;28;20247;-72
2023/12/30 09:13:06;;;;;;;49.65;26.05;;;;;;;-142.91;100.00;56616.03;5024906;28;20318;-72
2023/12/30 09:15:35;;;;;;;42.42;27.80;;;;;;;-142.91;100.00;56616.03;5017617;28;20246;-72
2023/12/30 09:18:01;;;;;;;44.25;28.55;;;;;;;-142.91;100.00;56616.03;5022677;28;20214;-73
2023/12/30 09:20:28;;;;;;;53.70;27.90;;;;;;;;;;5015023;28;20208;-73
2023/12/30 09:22:54;;;;;;;44.53;27.00;;;;;;;-142.91;100.00;56616.03;5015010;28;20317;-72
2023/12/30 09:25:21;;;;;;;47.75;27.30;;;;;;;-142.91;100.00;56616.03;5013710;28;20292;-72
2023/12/30 09:27:48;;;;;;;44.60;27.33;;;;;;;-142.91;100.00;56616.03;5014422;28;20231;-72
2023/12/30 09:30:14;;;;;;;51.75;27.90;;;;;;;;;;5012923;28;20290;-72
2023/12/30 09:32:43;;;;;;;48.85;28.73;;;;;;;-142.91;100.00;56616.03;5010103;28;20318;-72
2023/12/30 09:35:10;;;;;;;46.20;30.05;;;;;;;-142.91;100.00;56616.03;5014441;28;20223;-72
2023/12/30 09:37:36;;;;;;;47.15;29.60;;;;;;;-142.91;100.00;56616.03;5024385;28;20318;-73
2023/12/30 09:40:03;;;;;;;50.85;29.20;;;;;;;-142.91;100.00;56616.03;5024816;28;20242;-72
2023/12/30 09:42:30;;;;;;;46.15;30.33;;;;;;;-142.91;100.00;56616.03;5022358;28;20231;-72
2023/12/30 09:44:59;;;;;;;51.38;30.30;;;;;;;-142.91;100.00;56616.03;5024906;28;20203;-72
2023/12/30 09:47:28;;;;;;;46.22;30.25;;;;;;;-142.91;100.00;56616.03;5024159;28;20295;-72
2023/12/30 09:49:56;;;;;;;49.60;30.80;;;;;;;-142.91;100.00;56616.03;5022582;28;20682;-71
2023/12/30 09:52:23;;;;;;;54.00;31.80;;;;;;;-142.91;100.00;56616.03;5022628;28;20237;-71
2023/12/30 09:54:49;;;;;;;52.63;32.25;;;;;;;-142.91;100.00;56616.03;5022635;28;20331;-72
2023/12/30 09:57:16;;;;;;;56.30;33.20;;;;;;;-142.91;100.00;56616.03;5023341;28;20230;-72
2023/12/30 09:59:44;;;;;;;51.00;31.70;;;;;;;-142.91;100.00;56616.03;5023905;28;20203;-71
2023/12/30 10:02:11;;;;;;;52.88;31.25;;;;;;;-142.91;100.00;56616.03;5022862;28;20214;-71
2023/12/30 10:04:38;;;;;;;57.65;33.42;;;;;;;23.25;100.00;56616.03;5023166;28;21253;-71
2023/12/30 10:07:07;;;;;;;55.30;32.03;;;;;;;-142.91;100.00;56616.03;5023614;28;20311;-71
2023/12/30 10:09:33;;;;;;;60.03;33.05;;;;;;;-142.91;100.00;56616.03;5023844;28;20231;-72
2023/12/30 10:12:00;;;;;;;64.75;34.42;;;;;;;;;;5026495;28;20286;-70
2023/12/30 10:14:27;;;;;;;62.65;34.42;;;;;;;-142.91;100.00;56616.03;5024624;28;20665;-71
2023/12/30 10:16:54;;;;;;;61.40;34.92;;;;;;;-142.91;100.00;56616.03;5028627;28;20203;-72
2023/12/30 10:21:56;;;;;;;62.55;36.92;;;;;;;-142.91;100.00;56616.03;5248997;22;20246;-72
2023/12/30 10:24:25;;;;;;;68.50;37.50;;;;;;;23.25;100.00;56616.03;4998574;28;20294;-69
2023/12/30 10:26:52;;;;;;;67.03;38.15;;;;;;;-142.91;100.00;56616.03;5016946;28;20199;-69
2023/12/30 10:29:19;;;;;;;62.40;38.10;;;;;;;-142.91;100.00;56616.03;5022747;28;20227;-71
2023/12/30 10:32:00;;;;;;;64.13;38.08;;;;;;;-142.91;100.00;56616.03;5024136;28;20244;-71
2023/12/30 10:34:26;;;;;;;60.10;37.25;;;;;;;;;;5022543;28;20589;-71
2023/12/30 10:36:53;;;;;;;61.67;37.80;;;;;;;-142.91;100.00;56616.03;5021814;28;20309;-70
2023/12/30 10:39:22;;;;;;;63.25;38.25;;;;;;;-142.91;100.00;56616.03;5017114;28;20630;-71
2023/12/30 10:41:50;;;;;;;66.28;37.90;;;;;;;-142.91;100.00;56616.03;5021933;28;20683;-71
2023/12/30 10:44:17;;;;;;;60.15;36.63;;;;;;;-142.91;100.00;56616.03;5019156;28;20286;-69
2023/12/30 10:46:48;;;;;;;63.33;35.53;;;;;;;-142.91;100.00;56616.03;5022025;28;20291;-69
2023/12/30 10:49:17;;;;;;;77.47;37.55;;;;;;;-142.91;100.00;56616.03;5014041;28;20203;-70
2023/12/30 10:51:44;;;;;;;66.43;36.58;;;;;;;-142.91;100.00;56616.03;5017793;28;20603;-69
2023/12/30 10:54:19;;;;;;;55.90;34.22;;;;;;;-142.91;100.00;56616.03;5022593;28;20225;-70
2023/12/30 10:56:53;;;;;;;58.90;33.83;;;;;;;-142.91;100.00;56616.03;5023589;28;20257;-70
2023/12/30 10:59:21;;;;;;;57.63;33.65;;;;;;;-142.91;100.00;56616.03;5015002;28;20218;-70
2023/12/30 11:01:49;;;;;;;66.35;36.67;;;;;;;-142.91;100.00;56616.03;5021775;28;20215;-70
2023/12/30 11:04:16;;;;;;;57.38;35.05;;;;;;;-142.91;100.00;56616.03;5014741;28;20286;-70
2023/12/30 11:06:49;;;;;;;61.60;34.92;;;;;;;-142.91;100.00;56616.03;4998294;28;20207;-69
2023/12/30 11:09:18;;;;;;;64.35;33.80;;;;;;;;;;5024715;28;20199;-71